KSAV/SAV METAR and TAF weather

Enter ICAO airport designator
Station Type Date Time Source
KSAV METAR 2019/12/08 16:53 UTC NOAA

KSAV 081653Z 04008KT 10SM FEW035 FEW100 BKN250 15/07 A3032 RMK AO2 SLP265 T01500067


Station Type Date Time Source
KSAV Decoded METAR 2019/12/08 16:53 UTC NOAA

SAVANNAH INTERNATIONAL AIRPORT , GA, United States (KSAV) 32-07N 81-12W 14M
Dec 08, 2019 - 11:53 AM EST / 2019.12.08 1653 UTC
Wind: from the NE (040 degrees) at 9 MPH (8 KT):0
Visibility: 10 mile(s):0
Sky conditions: mostly cloudy
Temperature: 59.0 F (15.0 C)
Dew Point: 44.1 F (6.7 C)
Relative Humidity: 57%
Pressure (altimeter): 30.32 in. Hg (1026 hPa)
ob: KSAV 081653Z 04008KT 10SM FEW035 FEW100 BKN250 15/07 A3032 RMK AO2 SLP265 T01500067
cycle: 17

Station Type Date Time Source
KSAV TAF 2019/12/08 12:23 UTC NOAA

TAF KSAV 081120Z 0812/0912 04009KT P6SM SCT035
FM081600 04008KT P6SM BKN045
FM090100 04005KT P6SM OVC035
FM090800 VRB02KT 5SM BR SCT008 OVC010

Example: see airport list